sensor_id;sensor_type;location;lat;lon;timestamp;P1;durP1;ratioP1;P2;durP2;ratioP2
69953;SDS011;57276;51.364;12.376;2023-07-20T00:02:09;11.50;;;8.07;;
69953;SDS011;57276;51.364;12.376;2023-07-20T00:08:11;10.73;;;6.97;;
69953;SDS011;57276;51.364;12.376;2023-07-20T00:14:12;11.15;;;6.57;;
69953;SDS011;57276;51.364;12.376;2023-07-20T00:20:14;10.33;;;6.30;;
69953;SDS011;57276;51.364;12.376;2023-07-20T00:26:16;7.90;;;5.30;;
69953;SDS011;57276;51.364;12.376;2023-07-20T00:32:17;8.43;;;5.20;;
69953;SDS011;57276;51.364;12.376;2023-07-20T00:38:19;8.98;;;5.10;;
69953;SDS011;57276;51.364;12.376;2023-07-20T00:44:22;9.23;;;5.00;;
69953;SDS011;57276;51.364;12.376;2023-07-20T00:50:26;9.03;;;4.73;;
69953;SDS011;57276;51.364;12.376;2023-07-20T00:56:29;6.22;;;4.40;;
69953;SDS011;57276;51.364;12.376;2023-07-20T01:02:31;7.67;;;5.27;;
69953;SDS011;57276;51.364;12.376;2023-07-20T01:08:42;8.00;;;5.70;;
69953;SDS011;57276;51.364;12.376;2023-07-20T01:14:44;7.45;;;5.47;;
69953;SDS011;57276;51.364;12.376;2023-07-20T01:20:46;8.20;;;5.43;;
69953;SDS011;57276;51.364;12.376;2023-07-20T01:32:55;8.60;;;5.40;;
69953;SDS011;57276;51.364;12.376;2023-07-20T01:38:58;7.97;;;5.57;;
69953;SDS011;57276;51.364;12.376;2023-07-20T01:45:00;10.77;;;5.40;;
69953;SDS011;57276;51.364;12.376;2023-07-20T01:51:02;8.40;;;4.67;;
69953;SDS011;57276;51.364;12.376;2023-07-20T01:57:04;7.38;;;4.60;;
69953;SDS011;57276;51.364;12.376;2023-07-20T02:03:06;8.33;;;5.03;;
69953;SDS011;57276;51.364;12.376;2023-07-20T02:09:08;6.85;;;4.28;;
69953;SDS011;57276;51.364;12.376;2023-07-20T02:15:10;8.60;;;4.30;;
69953;SDS011;57276;51.364;12.376;2023-07-20T02:21:12;6.97;;;4.63;;
69953;SDS011;57276;51.364;12.376;2023-07-20T02:27:14;6.53;;;4.57;;
69953;SDS011;57276;51.364;12.376;2023-07-20T02:33:16;7.87;;;4.33;;
69953;SDS011;57276;51.364;12.376;2023-07-20T02:39:17;8.48;;;5.20;;
69953;SDS011;57276;51.364;12.376;2023-07-20T02:45:19;7.05;;;4.57;;
69953;SDS011;57276;51.364;12.376;2023-07-20T02:51:20;9.17;;;4.80;;
69953;SDS011;57276;51.364;12.376;2023-07-20T02:57:22;9.85;;;5.25;;
69953;SDS011;57276;51.364;12.376;2023-07-20T03:03:23;9.03;;;5.10;;
69953;SDS011;57276;51.364;12.376;2023-07-20T03:09:25;8.25;;;5.47;;
69953;SDS011;57276;51.364;12.376;2023-07-20T03:15:27;10.77;;;5.05;;
69953;SDS011;57276;51.364;12.376;2023-07-20T03:21:29;8.00;;;5.70;;
69953;SDS011;57276;51.364;12.376;2023-07-20T03:27:33;9.38;;;5.65;;
69953;SDS011;57276;51.364;12.376;2023-07-20T03:33:36;9.80;;;5.17;;
69953;SDS011;57276;51.364;12.376;2023-07-20T03:39:37;9.80;;;5.35;;
69953;SDS011;57276;51.364;12.376;2023-07-20T03:45:39;9.73;;;5.45;;
69953;SDS011;57276;51.364;12.376;2023-07-20T03:51:41;9.50;;;5.07;;
69953;SDS011;57276;51.364;12.376;2023-07-20T03:57:42;8.82;;;4.88;;
69953;SDS011;57276;51.364;12.376;2023-07-20T04:03:44;8.23;;;5.63;;
69953;SDS011;57276;51.364;12.376;2023-07-20T04:09:50;7.32;;;4.95;;
69953;SDS011;57276;51.364;12.376;2023-07-20T04:15:51;10.70;;;5.53;;
69953;SDS011;57276;51.364;12.376;2023-07-20T04:21:53;7.77;;;5.30;;
69953;SDS011;57276;51.364;12.376;2023-07-20T04:27:55;10.57;;;5.43;;
69953;SDS011;57276;51.364;12.376;2023-07-20T04:33:57;9.87;;;6.00;;
69953;SDS011;57276;51.364;12.376;2023-07-20T04:39:58;9.00;;;5.47;;
69953;SDS011;57276;51.364;12.376;2023-07-20T04:46:00;10.35;;;6.00;;
69953;SDS011;57276;51.364;12.376;2023-07-20T04:52:05;11.47;;;5.97;;
69953;SDS011;57276;51.364;12.376;2023-07-20T04:58:07;9.68;;;5.32;;
69953;SDS011;57276;51.364;12.376;2023-07-20T05:04:11;8.63;;;5.50;;
69953;SDS011;57276;51.364;12.376;2023-07-20T05:10:13;10.65;;;5.18;;
69953;SDS011;57276;51.364;12.376;2023-07-20T05:16:15;7.57;;;5.35;;
69953;SDS011;57276;51.364;12.376;2023-07-20T05:22:17;9.37;;;5.47;;
69953;SDS011;57276;51.364;12.376;2023-07-20T05:28:19;10.35;;;5.15;;
69953;SDS011;57276;51.364;12.376;2023-07-20T05:34:21;11.73;;;4.87;;
69953;SDS011;57276;51.364;12.376;2023-07-20T05:40:22;9.10;;;5.10;;
69953;SDS011;57276;51.364;12.376;2023-07-20T05:46:24;7.63;;;4.97;;
69953;SDS011;57276;51.364;12.376;2023-07-20T05:52:28;8.43;;;4.90;;
69953;SDS011;57276;51.364;12.376;2023-07-20T05:58:30;10.57;;;5.57;;
69953;SDS011;57276;51.364;12.376;2023-07-20T06:04:31;11.07;;;5.07;;
69953;SDS011;57276;51.364;12.376;2023-07-20T06:10:33;11.38;;;5.20;;
69953;SDS011;57276;51.364;12.376;2023-07-20T06:16:34;10.90;;;5.05;;
69953;SDS011;57276;51.364;12.376;2023-07-20T06:22:36;8.47;;;4.37;;
69953;SDS011;57276;51.364;12.376;2023-07-20T06:28:38;7.53;;;4.55;;
69953;SDS011;57276;51.364;12.376;2023-07-20T06:34:39;8.07;;;4.07;;
69953;SDS011;57276;51.364;12.376;2023-07-20T06:40:41;5.57;;;3.50;;
69953;SDS011;57276;51.364;12.376;2023-07-20T06:46:42;6.78;;;3.70;;
69953;SDS011;57276;51.364;12.376;2023-07-20T06:52:44;5.90;;;3.10;;
69953;SDS011;57276;51.364;12.376;2023-07-20T06:58:47;8.48;;;4.85;;
69953;SDS011;57276;51.364;12.376;2023-07-20T07:04:49;7.37;;;5.33;;
69953;SDS011;57276;51.364;12.376;2023-07-20T07:10:59;7.00;;;4.65;;
69953;SDS011;57276;51.364;12.376;2023-07-20T07:17:01;6.88;;;4.47;;
69953;SDS011;57276;51.364;12.376;2023-07-20T07:23:06;9.67;;;4.97;;
69953;SDS011;57276;51.364;12.376;2023-07-20T07:29:07;7.28;;;4.18;;
69953;SDS011;57276;51.364;12.376;2023-07-20T07:35:09;8.50;;;4.63;;
69953;SDS011;57276;51.364;12.376;2023-07-20T07:41:10;6.75;;;4.40;;
69953;SDS011;57276;51.364;12.376;2023-07-20T07:47:12;7.25;;;4.57;;
69953;SDS011;57276;51.364;12.376;2023-07-20T07:53:14;7.73;;;5.10;;
69953;SDS011;57276;51.364;12.376;2023-07-20T07:59:15;6.82;;;4.35;;
69953;SDS011;57276;51.364;12.376;2023-07-20T08:05:17;6.30;;;4.23;;
69953;SDS011;57276;51.364;12.376;2023-07-20T08:11:19;6.28;;;4.00;;
69953;SDS011;57276;51.364;12.376;2023-07-20T08:17:20;7.13;;;3.65;;
69953;SDS011;57276;51.364;12.376;2023-07-20T08:23:22;6.20;;;3.60;;
69953;SDS011;57276;51.364;12.376;2023-07-20T08:29:24;7.70;;;4.57;;
69953;SDS011;57276;51.364;12.376;2023-07-20T08:35:25;6.03;;;4.13;;
69953;SDS011;57276;51.364;12.376;2023-07-20T08:41:27;6.32;;;4.18;;
69953;SDS011;57276;51.364;12.376;2023-07-20T08:47:28;5.70;;;3.70;;
69953;SDS011;57276;51.364;12.376;2023-07-20T08:53:31;7.23;;;4.37;;
69953;SDS011;57276;51.364;12.376;2023-07-20T08:59:34;6.72;;;4.20;;
69953;SDS011;57276;51.364;12.376;2023-07-20T09:05:37;6.73;;;4.30;;
69953;SDS011;57276;51.364;12.376;2023-07-20T09:11:41;6.20;;;4.70;;
69953;SDS011;57276;51.364;12.376;2023-07-20T09:17:47;11.07;;;4.85;;
69953;SDS011;57276;51.364;12.376;2023-07-20T09:23:50;7.50;;;5.20;;
69953;SDS011;57276;51.364;12.376;2023-07-20T09:29:57;6.88;;;5.05;;
69953;SDS011;57276;51.364;12.376;2023-07-20T09:36:02;7.03;;;4.97;;
69953;SDS011;57276;51.364;12.376;2023-07-20T09:42:24;7.75;;;6.15;;
69953;SDS011;57276;51.364;12.376;2023-07-20T09:48:29;7.63;;;6.05;;
69953;SDS011;57276;51.364;12.376;2023-07-20T09:54:34;16.23;;;10.10;;
69953;SDS011;57276;51.364;12.376;2023-07-20T10:00:38;12.30;;;9.30;;
69953;SDS011;57276;51.364;12.376;2023-07-20T10:06:43;11.03;;;8.73;;
69953;SDS011;57276;51.364;12.376;2023-07-20T10:12:48;10.50;;;8.98;;
69953;SDS011;57276;51.364;12.376;2023-07-20T10:25:01;9.03;;;6.73;;
69953;SDS011;57276;51.364;12.376;2023-07-20T10:31:02;8.00;;;5.07;;
69953;SDS011;57276;51.364;12.376;2023-07-20T10:37:05;7.00;;;5.50;;
69953;SDS011;57276;51.364;12.376;2023-07-20T10:43:07;8.13;;;5.45;;
69953;SDS011;57276;51.364;12.376;2023-07-20T10:49:09;8.60;;;5.38;;
69953;SDS011;57276;51.364;12.376;2023-07-20T10:55:14;7.10;;;4.97;;
69953;SDS011;57276;51.364;12.376;2023-07-20T11:01:17;7.45;;;5.18;;
69953;SDS011;57276;51.364;12.376;2023-07-20T11:07:35;7.07;;;4.43;;
69953;SDS011;57276;51.364;12.376;2023-07-20T11:13:39;5.50;;;4.03;;
69953;SDS011;57276;51.364;12.376;2023-07-20T11:19:55;7.13;;;4.07;;
69953;SDS011;57276;51.364;12.376;2023-07-20T11:26:00;4.63;;;3.20;;
69953;SDS011;57276;51.364;12.376;2023-07-20T11:32:04;6.32;;;3.22;;
69953;SDS011;57276;51.364;12.376;2023-07-20T11:38:07;4.80;;;3.00;;
69953;SDS011;57276;51.364;12.376;2023-07-20T11:44:09;5.00;;;2.95;;
69953;SDS011;57276;51.364;12.376;2023-07-20T11:50:15;5.45;;;3.47;;
69953;SDS011;57276;51.364;12.376;2023-07-20T11:56:17;6.73;;;3.17;;
69953;SDS011;57276;51.364;12.376;2023-07-20T12:02:19;5.15;;;2.83;;
69953;SDS011;57276;51.364;12.376;2023-07-20T12:08:20;4.90;;;3.17;;
69953;SDS011;57276;51.364;12.376;2023-07-20T12:14:24;4.68;;;3.08;;
69953;SDS011;57276;51.364;12.376;2023-07-20T12:20:27;4.45;;;3.10;;
69953;SDS011;57276;51.364;12.376;2023-07-20T12:26:29;4.93;;;3.20;;
69953;SDS011;57276;51.364;12.376;2023-07-20T12:32:31;3.67;;;2.20;;
69953;SDS011;57276;51.364;12.376;2023-07-20T12:38:33;4.30;;;1.83;;
69953;SDS011;57276;51.364;12.376;2023-07-20T12:44:34;8.40;;;1.58;;
69953;SDS011;57276;51.364;12.376;2023-07-20T12:50:36;3.10;;;1.40;;
69953;SDS011;57276;51.364;12.376;2023-07-20T12:56:37;3.60;;;1.33;;
69953;SDS011;57276;51.364;12.376;2023-07-20T13:02:42;3.10;;;1.30;;
69953;SDS011;57276;51.364;12.376;2023-07-20T13:08:44;2.80;;;1.20;;
69953;SDS011;57276;51.364;12.376;2023-07-20T13:14:46;3.33;;;1.30;;
69953;SDS011;57276;51.364;12.376;2023-07-20T13:20:48;4.68;;;1.52;;
69953;SDS011;57276;51.364;12.376;2023-07-20T13:26:49;4.27;;;1.60;;
69953;SDS011;57276;51.364;12.376;2023-07-20T13:32:51;3.95;;;1.80;;
69953;SDS011;57276;51.364;12.376;2023-07-20T13:38:55;3.97;;;2.33;;
69953;SDS011;57276;51.364;12.376;2023-07-20T13:44:56;4.75;;;2.35;;
69953;SDS011;57276;51.364;12.376;2023-07-20T13:50:58;3.92;;;2.63;;
69953;SDS011;57276;51.364;12.376;2023-07-20T13:57:02;4.17;;;2.73;;
69953;SDS011;57276;51.364;12.376;2023-07-20T14:03:04;5.43;;;2.65;;
69953;SDS011;57276;51.364;12.376;2023-07-20T14:09:08;3.57;;;2.50;;
69953;SDS011;57276;51.364;12.376;2023-07-20T14:15:10;4.22;;;2.90;;
69953;SDS011;57276;51.364;12.376;2023-07-20T14:21:12;3.83;;;2.70;;
69953;SDS011;57276;51.364;12.376;2023-07-20T14:27:14;3.73;;;2.50;;
69953;SDS011;57276;51.364;12.376;2023-07-20T14:33:16;5.68;;;2.63;;
69953;SDS011;57276;51.364;12.376;2023-07-20T14:39:17;3.83;;;2.70;;
69953;SDS011;57276;51.364;12.376;2023-07-20T14:45:19;4.00;;;2.80;;
69953;SDS011;57276;51.364;12.376;2023-07-20T14:51:21;5.10;;;2.80;;
69953;SDS011;57276;51.364;12.376;2023-07-20T14:57:23;3.90;;;2.97;;
69953;SDS011;57276;51.364;12.376;2023-07-20T15:03:25;4.70;;;2.85;;
69953;SDS011;57276;51.364;12.376;2023-07-20T15:09:26;4.13;;;3.17;;
69953;SDS011;57276;51.364;12.376;2023-07-20T15:15:28;7.85;;;2.85;;
69953;SDS011;57276;51.364;12.376;2023-07-20T15:21:30;3.85;;;2.80;;
69953;SDS011;57276;51.364;12.376;2023-07-20T15:27:31;4.37;;;3.00;;
69953;SDS011;57276;51.364;12.376;2023-07-20T15:33:33;3.83;;;2.28;;
69953;SDS011;57276;51.364;12.376;2023-07-20T15:39:35;4.10;;;1.43;;
69953;SDS011;57276;51.364;12.376;2023-07-20T15:45:36;3.20;;;1.40;;
69953;SDS011;57276;51.364;12.376;2023-07-20T15:51:38;2.90;;;1.30;;
69953;SDS011;57276;51.364;12.376;2023-07-20T15:57:41;3.20;;;1.20;;
69953;SDS011;57276;51.364;12.376;2023-07-20T16:03:43;3.22;;;1.20;;
69953;SDS011;57276;51.364;12.376;2023-07-20T16:09:44;2.80;;;1.27;;
69953;SDS011;57276;51.364;12.376;2023-07-20T16:15:49;3.80;;;1.30;;
69953;SDS011;57276;51.364;12.376;2023-07-20T16:21:53;3.38;;;1.30;;
69953;SDS011;57276;51.364;12.376;2023-07-20T16:27:55;2.80;;;1.33;;
69953;SDS011;57276;51.364;12.376;2023-07-20T16:33:56;3.00;;;1.40;;
69953;SDS011;57276;51.364;12.376;2023-07-20T16:40:01;3.20;;;1.40;;
69953;SDS011;57276;51.364;12.376;2023-07-20T16:46:06;3.28;;;1.38;;
69953;SDS011;57276;51.364;12.376;2023-07-20T16:52:12;3.10;;;1.30;;
69953;SDS011;57276;51.364;12.376;2023-07-20T16:58:14;2.90;;;1.40;;
69953;SDS011;57276;51.364;12.376;2023-07-20T17:04:15;3.42;;;1.30;;
69953;SDS011;57276;51.364;12.376;2023-07-20T17:10:17;2.63;;;1.23;;
69953;SDS011;57276;51.364;12.376;2023-07-20T17:16:19;5.15;;;1.90;;
69953;SDS011;57276;51.364;12.376;2023-07-20T17:22:21;2.92;;;1.30;;
69953;SDS011;57276;51.364;12.376;2023-07-20T17:28:23;4.30;;;1.70;;
69953;SDS011;57276;51.364;12.376;2023-07-20T17:34:27;3.50;;;1.52;;
69953;SDS011;57276;51.364;12.376;2023-07-20T17:40:29;3.50;;;1.00;;
69953;SDS011;57276;51.364;12.376;2023-07-20T17:46:33;3.30;;;1.40;;
69953;SDS011;57276;51.364;12.376;2023-07-20T17:52:38;3.28;;;1.38;;
69953;SDS011;57276;51.364;12.376;2023-07-20T17:58:40;3.00;;;1.20;;
69953;SDS011;57276;51.364;12.376;2023-07-20T18:04:42;3.33;;;1.55;;
69953;SDS011;57276;51.364;12.376;2023-07-20T18:10:44;3.33;;;1.37;;
69953;SDS011;57276;51.364;12.376;2023-07-20T18:16:46;3.28;;;1.30;;
69953;SDS011;57276;51.364;12.376;2023-07-20T18:22:48;3.60;;;1.50;;
69953;SDS011;57276;51.364;12.376;2023-07-20T18:28:54;4.17;;;1.40;;
69953;SDS011;57276;51.364;12.376;2023-07-20T18:34:56;3.88;;;1.85;;
69953;SDS011;57276;51.364;12.376;2023-07-20T18:40:59;3.30;;;1.57;;
69953;SDS011;57276;51.364;12.376;2023-07-20T18:47:01;3.28;;;1.20;;
69953;SDS011;57276;51.364;12.376;2023-07-20T18:53:03;3.92;;;1.40;;
69953;SDS011;57276;51.364;12.376;2023-07-20T18:59:09;3.47;;;1.60;;
69953;SDS011;57276;51.364;12.376;2023-07-20T19:05:11;3.30;;;1.60;;
69953;SDS011;57276;51.364;12.376;2023-07-20T19:11:13;4.40;;;2.90;;
69953;SDS011;57276;51.364;12.376;2023-07-20T19:17:18;3.78;;;2.03;;
69953;SDS011;57276;51.364;12.376;2023-07-20T19:23:22;4.57;;;1.83;;
69953;SDS011;57276;51.364;12.376;2023-07-20T19:29:24;5.27;;;2.30;;
69953;SDS011;57276;51.364;12.376;2023-07-20T19:35:25;3.80;;;2.00;;
69953;SDS011;57276;51.364;12.376;2023-07-20T19:41:28;5.13;;;1.80;;
69953;SDS011;57276;51.364;12.376;2023-07-20T19:47:31;4.75;;;1.73;;
69953;SDS011;57276;51.364;12.376;2023-07-20T19:53:34;4.90;;;2.10;;
69953;SDS011;57276;51.364;12.376;2023-07-20T19:59:37;4.17;;;1.70;;
69953;SDS011;57276;51.364;12.376;2023-07-20T20:05:41;4.63;;;2.00;;
69953;SDS011;57276;51.364;12.376;2023-07-20T20:11:44;4.80;;;2.10;;
69953;SDS011;57276;51.364;12.376;2023-07-20T20:17:51;7.28;;;2.20;;
69953;SDS011;57276;51.364;12.376;2023-07-20T20:23:53;3.88;;;1.83;;
69953;SDS011;57276;51.364;12.376;2023-07-20T20:29:55;4.47;;;1.80;;
69953;SDS011;57276;51.364;12.376;2023-07-20T20:35:59;3.22;;;1.50;;
69953;SDS011;57276;51.364;12.376;2023-07-20T20:42:01;4.50;;;1.73;;
69953;SDS011;57276;51.364;12.376;2023-07-20T20:48:03;5.82;;;2.10;;
69953;SDS011;57276;51.364;12.376;2023-07-20T20:54:08;7.65;;;2.53;;
69953;SDS011;57276;51.364;12.376;2023-07-20T21:00:13;4.53;;;1.90;;
69953;SDS011;57276;51.364;12.376;2023-07-20T21:06:15;4.72;;;2.35;;
69953;SDS011;57276;51.364;12.376;2023-07-20T21:12:17;6.23;;;2.70;;
69953;SDS011;57276;51.364;12.376;2023-07-20T21:18:18;6.30;;;2.35;;
69953;SDS011;57276;51.364;12.376;2023-07-20T21:24:20;5.63;;;2.20;;
69953;SDS011;57276;51.364;12.376;2023-07-20T21:30:21;3.97;;;2.30;;
69953;SDS011;57276;51.364;12.376;2023-07-20T21:36:28;4.45;;;2.17;;
69953;SDS011;57276;51.364;12.376;2023-07-20T21:42:29;5.57;;;2.50;;
69953;SDS011;57276;51.364;12.376;2023-07-20T21:48:31;4.68;;;2.40;;
69953;SDS011;57276;51.364;12.376;2023-07-20T21:54:32;4.45;;;2.30;;
69953;SDS011;57276;51.364;12.376;2023-07-20T22:00:34;6.73;;;2.50;;
69953;SDS011;57276;51.364;12.376;2023-07-20T22:06:36;4.07;;;2.10;;
69953;SDS011;57276;51.364;12.376;2023-07-20T22:12:38;5.67;;;2.50;;
69953;SDS011;57276;51.364;12.376;2023-07-20T22:18:39;6.95;;;2.10;;
69953;SDS011;57276;51.364;12.376;2023-07-20T22:24:41;5.88;;;2.50;;
69953;SDS011;57276;51.364;12.376;2023-07-20T22:30:42;5.93;;;2.60;;
69953;SDS011;57276;51.364;12.376;2023-07-20T22:36:45;3.83;;;2.15;;
69953;SDS011;57276;51.364;12.376;2023-07-20T22:42:50;4.33;;;2.20;;
69953;SDS011;57276;51.364;12.376;2023-07-20T22:48:51;4.82;;;2.05;;
69953;SDS011;57276;51.364;12.376;2023-07-20T22:54:53;5.35;;;2.20;;
69953;SDS011;57276;51.364;12.376;2023-07-20T23:00:54;4.40;;;1.80;;
69953;SDS011;57276;51.364;12.376;2023-07-20T23:06:56;5.97;;;2.10;;
69953;SDS011;57276;51.364;12.376;2023-07-20T23:12:58;3.63;;;1.80;;
69953;SDS011;57276;51.364;12.376;2023-07-20T23:19:00;5.32;;;2.00;;
69953;SDS011;57276;51.364;12.376;2023-07-20T23:25:03;3.88;;;1.88;;
69953;SDS011;57276;51.364;12.376;2023-07-20T23:31:04;3.73;;;1.97;;
69953;SDS011;57276;51.364;12.376;2023-07-20T23:37:06;3.75;;;1.80;;
69953;SDS011;57276;51.364;12.376;2023-07-20T23:43:07;5.03;;;1.83;;
69953;SDS011;57276;51.364;12.376;2023-07-20T23:49:09;4.50;;;1.80;;
69953;SDS011;57276;51.364;12.376;2023-07-20T23:55:11;4.22;;;1.88;;
